Time;durP1;ratioP1;P1;durP2;ratioP2;P2;SDS_P1;SDS_P2;PMS_P1;PMS_P2;Temp;Humidity;BMP_temperature;BMP_pressure;BME280_temperature;BME280_humidity;BME280_pressure;Samples;Min_cycle;Max_cycle;Signal;HPM_P1;HPM_P2
2021/03/28 00:01:55;;;;;;;11.10;3.90;;;5.40;99.90;;;;;;5009148;28;20246;-75
2021/03/28 00:04:23;;;;;;;12.63;4.20;;;5.40;99.90;;;;;;4989921;28;20239;-75
2021/03/28 00:07:00;;;;;;;12.43;3.40;;;5.30;99.90;;;;;;4989620;28;20260;-75
2021/03/28 00:09:38;;;;;;;15.50;4.00;;;5.20;99.90;;;;;;4989904;28;20233;-75
2021/03/28 00:12:12;;;;;;;11.73;3.87;;;5.20;99.90;;;;;;4992756;28;20204;-75
2021/03/28 00:14:47;;;;;;;15.10;3.67;;;5.20;99.90;;;;;;5028763;28;20242;-74
2021/03/28 00:17:36;;;;;;;12.17;3.77;;;5.00;99.90;;;;;;5024970;28;20761;-74
2021/03/28 00:20:29;;;;;;;12.67;3.67;;;5.00;99.90;;;;;;5029050;28;20582;-75
2021/03/28 00:23:09;;;;;;;10.50;3.50;;;4.90;99.90;;;;;;5022408;28;20234;-75
2021/03/28 00:25:40;;;;;;;13.87;3.30;;;5.00;99.90;;;;;;5029279;28;20298;-76
2021/03/28 00:28:10;;;;;;;13.33;3.47;;;5.00;99.90;;;;;;5022353;28;20255;-76
2021/03/28 00:30:40;;;;;;;9.30;3.30;;;5.10;99.90;;;;;;5012766;28;20732;-74
2021/03/28 00:33:21;;;;;;;11.70;3.30;;;5.10;99.90;;;;;;4996328;28;20592;-77
2021/03/28 00:35:53;;;;;;;12.70;3.20;;;5.30;99.90;;;;;;5012726;28;20208;-76
2021/03/28 00:38:25;;;;;;;10.77;3.00;;;5.30;99.90;;;;;;5068393;28;20213;-76
2021/03/28 00:41:13;;;;;;;11.93;3.20;;;5.40;99.90;;;;;;5074699;28;20224;-75
2021/03/28 00:43:48;;;;;;;9.67;3.03;;;5.30;99.90;;;;;;5082915;28;20243;-76
2021/03/28 00:46:34;;;;;;;9.87;3.23;;;5.30;99.90;;;;;;5074119;28;20370;-76
2021/03/28 00:49:02;;;;;;;13.13;3.10;;;5.30;99.90;;;;;;5074814;28;20236;-76
2021/03/28 00:51:30;;;;;;;8.27;2.93;;;5.20;99.90;;;;;;5074742;28;20240;-76
2021/03/28 00:54:01;;;;;;;11.73;3.30;;;5.10;99.90;;;;;;5074469;28;20234;-75
2021/03/28 00:56:39;;;;;;;11.73;3.23;;;5.10;99.90;;;;;;5074592;28;20237;-76
2021/03/28 00:59:16;;;;;;;9.83;3.23;;;5.10;99.90;;;;;;5073971;28;20636;-76
2021/03/28 01:02:03;;;;;;;13.17;2.77;;;5.10;99.90;;;;;;5073788;28;20233;-76
2021/03/28 01:05:09;;;;;;;9.73;3.00;;;5.30;99.90;;;;;;5074621;28;20211;-76
2021/03/28 01:07:44;;;;;;;10.37;2.77;;;5.30;99.90;;;;;;5070861;28;20224;-76
2021/03/28 01:10:43;;;;;;;9.57;2.97;;;5.20;99.90;;;;;;5074088;28;20240;-76
2021/03/28 01:13:47;;;;;;;12.97;3.27;;;5.20;99.90;;;;;;5077853;28;20229;-76
2021/03/28 01:16:36;;;;;;;10.70;3.10;;;5.00;99.90;;;;;;5094591;28;20236;-76
2021/03/28 01:19:13;;;;;;;12.77;3.50;;;4.80;99.90;;;;;;5074198;28;20211;-75
2021/03/28 01:21:45;;;;;;;11.77;3.63;;;4.60;99.90;;;;;;5074568;28;20204;-76
2021/03/28 01:24:26;;;;;;;11.50;3.70;;;4.60;99.90;;;;;;5073682;28;20662;-76
2021/03/28 01:27:23;;;;;;;9.83;3.27;;;4.70;99.90;;;;;;5073475;28;20241;-76
2021/03/28 01:29:54;;;;;;;12.30;3.60;;;4.60;99.90;;;;;;5011467;28;20293;-76
2021/03/28 01:32:28;;;;;;;13.33;3.63;;;4.70;99.90;;;;;;5018558;28;20253;-76
2021/03/28 01:35:00;;;;;;;7.33;3.07;;;4.70;99.90;;;;;;5031451;28;20282;-76
2021/03/28 01:37:33;;;;;;;8.57;3.07;;;4.80;99.90;;;;;;5011881;28;20209;-76
2021/03/28 01:40:10;;;;;;;8.00;3.27;;;4.70;99.90;;;;;;5011430;28;20376;-76
2021/03/28 01:42:46;;;;;;;12.33;3.30;;;4.80;99.90;;;;;;5028523;28;20246;-75
2021/03/28 01:45:24;;;;;;;13.10;3.83;;;4.80;99.90;;;;;;5024223;28;20273;-76
2021/03/28 01:48:29;;;;;;;9.37;3.60;;;4.70;99.90;;;;;;5011490;28;20254;-75
2021/03/28 01:51:26;;;;;;;12.43;2.90;;;4.60;99.90;;;;;;4953198;29;20210;-76
2021/03/28 01:54:02;;;;;;;18.37;3.80;;;4.60;99.90;;;;;;4953248;28;20206;-76
2021/03/28 01:56:34;;;;;;;13.73;3.20;;;4.80;99.90;;;;;;4953060;28;20251;-76
2021/03/28 01:59:18;;;;;;;14.43;3.30;;;4.80;99.90;;;;;;4953044;28;20361;-75
2021/03/28 02:01:49;;;;;;;13.27;3.10;;;4.80;99.90;;;;;;4952641;29;20278;-75
2021/03/28 02:04:26;;;;;;;10.93;3.20;;;4.70;99.90;;;;;;4937128;28;20235;-75
2021/03/28 02:07:21;;;;;;;11.87;3.30;;;4.60;99.90;;;;;;5011042;28;20276;-75
2021/03/28 02:09:55;;;;;;;10.73;3.50;;;4.50;99.90;;;;;;5032080;28;20268;-76
2021/03/28 02:12:34;;;;;;;12.77;3.27;;;4.30;99.90;;;;;;5050532;28;20266;-76
2021/03/28 02:15:25;;;;;;;11.60;3.07;;;4.30;99.90;;;;;;5048596;28;20244;-76
2021/03/28 02:18:00;;;;;;;11.43;3.20;;;4.20;99.90;;;;;;5027097;28;20251;-76
2021/03/28 02:20:38;;;;;;;12.77;3.70;;;4.30;99.90;;;;;;5029724;28;20252;-76
2021/03/28 02:23:14;;;;;;;9.63;3.07;;;4.30;99.90;;;;;;5074925;28;20198;-76
2021/03/28 02:25:49;;;;;;;9.27;3.13;;;4.30;99.90;;;;;;5072613;28;20337;-76
2021/03/28 02:28:40;;;;;;;15.80;3.30;;;4.20;99.90;;;;;;5072387;28;20296;-75
2021/03/28 02:31:14;;;;;;;8.43;2.73;;;4.30;99.90;;;;;;5072373;28;20235;-76
2021/03/28 02:33:50;;;;;;;11.57;3.47;;;4.20;99.90;;;;;;5073035;28;20243;-76
2021/03/28 02:36:23;;;;;;;13.00;3.43;;;4.10;99.90;;;;;;5072892;28;20605;-75
2021/03/28 02:39:23;;;;;;;9.97;3.03;;;4.00;99.90;;;;;;5073057;28;20236;-76
2021/03/28 02:42:07;;;;;;;14.13;3.43;;;3.90;99.90;;;;;;5071810;28;20242;-76
2021/03/28 02:44:49;;;;;;;13.93;3.30;;;3.90;99.90;;;;;;5053462;28;20231;-76
2021/03/28 02:47:30;;;;;;;10.53;3.23;;;3.80;99.90;;;;;;5071527;28;20223;-75
2021/03/28 02:50:41;;;;;;;11.90;3.33;;;3.90;99.90;;;;;;5071925;28;20227;-76
2021/03/28 02:53:20;;;;;;;12.33;3.60;;;4.00;99.90;;;;;;5035887;28;20232;-75
2021/03/28 02:56:19;;;;;;;13.90;3.90;;;4.00;99.90;;;;;;5071725;28;20227;-76
2021/03/28 02:59:03;;;;;;;10.70;3.10;;;4.00;99.90;;;;;;5071678;28;20355;-75
2021/03/28 03:01:44;;;;;;;11.50;2.93;;;4.00;99.90;;;;;;5072098;28;20602;-76
2021/03/28 03:04:26;;;;;;;11.17;3.17;;;3.80;99.90;;;;;;5071790;28;20666;-76
2021/03/28 03:07:09;;;;;;;12.00;3.63;;;3.90;99.90;;;;;;5072103;28;20696;-75
2021/03/28 03:09:50;;;;;;;8.67;3.00;;;4.10;99.90;;;;;;5051883;28;20284;-75
2021/03/28 03:12:29;;;;;;;12.07;3.60;;;4.20;99.90;;;;;;5071472;28;20233;-76
2021/03/28 03:15:12;;;;;;;12.83;3.40;;;4.00;99.90;;;;;;5071667;28;20264;-75
2021/03/28 03:18:16;;;;;;;15.67;3.40;;;3.90;99.90;;;;;;5071581;28;20267;-75
2021/03/28 03:21:32;;;;;;;14.20;3.50;;;4.00;99.90;;;;;;5064737;28;20289;-76
2021/03/28 03:24:44;;;;;;;9.03;3.17;;;3.90;99.90;;;;;;5051816;28;20227;-76
2021/03/28 03:27:56;;;;;;;11.03;3.03;;;3.70;99.90;;;;;;5039025;28;20742;-76
2021/03/28 03:30:52;;;;;;;12.37;3.30;;;3.60;99.90;;;;;;5029788;28;20236;-76
2021/03/28 03:33:40;;;;;;;11.33;3.20;;;3.50;99.90;;;;;;5047049;28;20674;-76
2021/03/28 03:36:26;;;;;;;9.63;3.83;;;3.40;99.90;;;;;;5049380;28;20714;-76
2021/03/28 03:39:17;;;;;;;10.27;3.17;;;3.30;99.90;;;;;;5049143;28;20236;-76
2021/03/28 03:42:06;;;;;;;13.73;3.30;;;3.10;99.90;;;;;;5049350;28;20702;-76
2021/03/28 03:44:54;;;;;;;10.70;3.03;;;3.10;99.90;;;;;;5046990;28;20235;-76
2021/03/28 03:47:25;;;;;;;9.17;2.77;;;3.00;99.90;;;;;;5046151;28;20302;-75
2021/03/28 03:50:14;;;;;;;12.03;3.40;;;2.90;99.90;;;;;;5048323;28;20207;-76
2021/03/28 03:53:02;;;;;;;9.73;3.30;;;2.80;99.90;;;;;;5048669;28;20242;-76
2021/03/28 03:55:40;;;;;;;10.70;3.47;;;2.70;99.90;;;;;;5048032;28;20246;-76
2021/03/28 03:58:23;;;;;;;11.77;3.27;;;2.70;99.90;;;;;;5048063;28;20218;-76
2021/03/28 04:00:56;;;;;;;9.17;3.27;;;2.60;99.90;;;;;;5048881;28;20208;-75
2021/03/28 04:03:31;;;;;;;13.57;3.73;;;2.60;99.90;;;;;;5053223;28;20246;-75
2021/03/28 04:06:42;;;;;;;12.77;3.93;;;2.60;99.90;;;;;;5036532;28;20208;-76
2021/03/28 04:09:19;;;;;;;9.23;3.53;;;2.60;99.90;;;;;;5008132;28;20609;-75
2021/03/28 04:12:02;;;;;;;12.07;4.10;;;2.60;99.90;;;;;;5055897;28;20231;-76
2021/03/28 04:14:38;;;;;;;9.47;3.80;;;2.60;99.90;;;;;;5068726;28;20232;-76
2021/03/28 04:17:22;;;;;;;13.27;3.93;;;2.60;99.90;;;;;;5075312;28;20711;-75
2021/03/28 04:19:59;;;;;;;15.77;4.23;;;2.60;99.90;;;;;;5075461;28;20238;-76
2021/03/28 04:22:51;;;;;;;10.23;3.40;;;2.50;99.90;;;;;;5075156;28;20252;-76
2021/03/28 04:25:38;;;;;;;9.43;3.40;;;2.30;99.90;;;;;;5062602;28;20682;-76
2021/03/28 04:28:23;;;;;;;9.70;3.30;;;2.20;99.90;;;;;;5073831;28;20261;-76
2021/03/28 04:31:30;;;;;;;9.27;3.50;;;2.00;99.90;;;;;;5075262;28;20237;-76
2021/03/28 04:34:02;;;;;;;9.97;3.30;;;1.90;99.90;;;;;;5074664;28;20246;-76
2021/03/28 04:36:37;;;;;;;10.07;3.43;;;1.90;99.90;;;;;;5074686;28;20661;-76
2021/03/28 04:39:43;;;;;;;8.50;3.83;;;1.90;99.90;;;;;;5074943;28;20234;-76
2021/03/28 04:42:46;;;;;;;10.30;3.77;;;1.90;99.90;;;;;;5032440;28;20208;-75
2021/03/28 04:45:53;;;;;;;11.43;3.70;;;1.90;99.90;;;;;;5012962;28;20430;-76
2021/03/28 04:48:49;;;;;;;8.73;3.47;;;1.90;99.90;;;;;;5029105;28;20271;-76
2021/03/28 04:51:41;;;;;;;10.93;3.77;;;1.90;99.90;;;;;;5023214;28;20269;-76
2021/03/28 04:54:33;;;;;;;10.63;3.43;;;1.90;99.90;;;;;;5031850;28;20202;-76
2021/03/28 04:57:25;;;;;;;10.80;3.77;;;1.90;99.90;;;;;;5031992;28;20325;-76
2021/03/28 05:00:30;;;;;;;13.67;3.90;;;2.00;99.90;;;;;;5016342;28;20287;-76
2021/03/28 05:03:20;;;;;;;12.80;3.53;;;2.20;99.90;;;;;;5032649;28;20233;-75
2021/03/28 05:06:25;;;;;;;12.37;4.00;;;2.20;99.90;;;;;;5015331;28;20244;-76
2021/03/28 05:08:57;;;;;;;12.53;3.70;;;2.20;99.90;;;;;;5006125;28;20237;-76
2021/03/28 05:11:57;;;;;;;9.67;3.70;;;2.20;99.90;;;;;;5018453;28;20339;-76
2021/03/28 05:14:57;;;;;;;9.13;3.50;;;2.10;99.90;;;;;;5030982;28;20232;-76
2021/03/28 05:18:03;;;;;;;11.27;3.43;;;2.20;99.90;;;;;;5031368;28;20248;-76
2021/03/28 05:21:07;;;;;;;11.70;3.60;;;2.30;99.90;;;;;;5073939;28;20233;-76
2021/03/28 05:24:01;;;;;;;14.17;4.10;;;2.50;99.90;;;;;;5074127;28;20238;-74
2021/03/28 05:26:47;;;;;;;12.47;3.70;;;2.40;99.90;;;;;;5074148;28;20232;-75
2021/03/28 05:29:34;;;;;;;10.97;4.03;;;2.20;99.90;;;;;;5073089;28;20237;-74
2021/03/28 05:32:56;;;;;;;11.20;3.37;;;2.10;99.90;;;;;;5076100;28;20225;-75
2021/03/28 05:36:02;;;;;;;10.77;3.53;;;2.00;99.90;;;;;;5088521;28;20351;-74
2021/03/28 05:39:14;;;;;;;12.33;3.57;;;2.00;99.90;;;;;;5074121;28;20205;-75
2021/03/28 05:42:04;;;;;;;6.53;2.90;;;1.90;99.90;;;;;;5011872;28;20244;-75
2021/03/28 05:45:01;;;;;;;14.50;3.47;;;1.80;99.90;;;;;;4995234;28;20257;-75
2021/03/28 05:47:43;;;;;;;14.37;3.37;;;1.80;99.90;;;;;;5016066;28;20243;-75
2021/03/28 05:50:26;;;;;;;14.33;3.73;;;2.00;99.90;;;;;;5045368;28;20233;-74
2021/03/28 05:53:29;;;;;;;9.37;3.23;;;2.10;99.90;;;;;;5051358;28;20285;-74
2021/03/28 05:56:29;;;;;;;11.87;3.30;;;2.00;99.90;;;;;;5051293;28;20664;-74
2021/03/28 05:59:35;;;;;;;9.00;3.27;;;2.10;99.90;;;;;;5051377;28;20783;-75
2021/03/28 06:02:37;;;;;;;5.67;2.90;;;2.10;99.90;;;;;;5025339;28;20237;-76
2021/03/28 06:05:46;;;;;;;12.03;3.00;;;2.20;99.90;;;;;;5031392;28;20207;-74
2021/03/28 06:08:50;;;;;;;12.93;3.97;;;2.40;99.90;;;;;;5011450;28;20263;-76
2021/03/28 06:12:04;;;;;;;13.53;4.50;;;2.80;99.90;;;;;;5013016;28;20245;-76
2021/03/28 06:14:44;;;;;;;10.83;4.27;;;3.20;99.90;;;;;;4971627;28;20284;-76
2021/03/28 06:17:46;;;;;;;15.73;4.37;;;3.40;99.90;;;;;;5010645;28;20213;-75
2021/03/28 06:20:42;;;;;;;10.97;3.73;;;3.70;99.90;;;;;;4947502;29;20286;-76
2021/03/28 06:24:12;;;;;;;13.03;3.63;;;3.90;99.90;;;;;;4942365;29;20247;-76
2021/03/28 06:27:13;;;;;;;12.90;4.00;;;4.20;99.90;;;;;;4882172;29;20241;-74
2021/03/28 06:30:12;;;;;;;15.93;3.40;;;4.50;99.90;;;;;;4858549;29;20242;-76
2021/03/28 06:33:16;;;;;;;14.70;3.37;;;4.70;99.90;;;;;;4846598;29;20239;-73
2021/03/28 06:36:12;;;;;;;10.30;3.70;;;4.80;99.90;;;;;;4877118;29;20246;-76
2021/03/28 06:39:11;;;;;;;12.97;3.43;;;5.00;99.90;;;;;;4860971;29;20208;-74
2021/03/28 06:41:58;;;;;;;10.73;3.10;;;5.30;99.90;;;;;;4877029;29;20677;-75
2021/03/28 06:44:41;;;;;;;14.27;3.20;;;5.40;99.90;;;;;;4821486;29;20210;-76
2021/03/28 06:47:33;;;;;;;15.23;3.10;;;5.50;99.90;;;;;;4821727;29;20321;-76
2021/03/28 06:50:34;;;;;;;9.27;2.97;;;5.90;99.90;;;;;;4857938;29;20311;-75
2021/03/28 06:53:16;;;;;;;10.90;3.47;;;6.10;99.90;;;;;;4857990;29;20237;-75
2021/03/28 06:55:43;;;;;;;12.67;3.07;;;6.30;99.90;;;;;;4855889;29;20241;-75
2021/03/28 06:58:45;;;;;;;7.90;3.27;;;6.70;99.90;;;;;;4939314;29;20288;-75
2021/03/28 07:01:46;;;;;;;12.27;3.60;;;7.40;99.90;;;;;;5023307;28;20239;-75
2021/03/28 07:04:55;;;;;;;8.33;3.47;;;8.20;99.90;;;;;;5009753;28;20322;-76
2021/03/28 07:07:45;;;;;;;9.13;3.33;;;8.90;99.90;;;;;;5009884;28;20667;-76
2021/03/28 07:10:34;;;;;;;9.53;2.93;;;9.40;99.90;;;;;;5010094;28;20237;-76
2021/03/28 07:13:38;;;;;;;10.13;2.93;;;9.90;99.90;;;;;;5010059;28;20229;-77
2021/03/28 07:16:26;;;;;;;13.83;3.67;;;10.40;99.90;;;;;;5009813;28;20214;-76
2021/03/28 07:19:18;;;;;;;11.00;3.07;;;10.50;99.90;;;;;;5009863;28;20247;-76
2021/03/28 07:22:03;;;;;;;9.77;3.27;;;11.50;99.90;;;;;;5044571;28;20231;-76
2021/03/28 07:25:12;;;;;;;8.37;3.40;;;11.80;99.90;;;;;;5072007;28;20242;-76
2021/03/28 07:28:21;;;;;;;8.90;3.00;;;12.10;99.90;;;;;;5072190;28;20265;-74
2021/03/28 07:31:15;;;;;;;10.30;3.20;;;12.80;99.90;;;;;;5080057;28;20606;-77
2021/03/28 07:34:20;;;;;;;8.13;3.37;;;13.00;99.90;;;;;;5072152;28;20207;-76
2021/03/28 07:37:20;;;;;;;8.87;3.03;;;12.60;99.90;;;;;;5071651;28;20267;-77
2021/03/28 07:40:09;;;;;;;12.47;3.17;;;12.90;99.90;;;;;;5069594;28;20230;-77
2021/03/28 07:43:05;;;;;;;6.97;2.57;;;13.30;99.90;;;;;;5072360;28;20203;-77
2021/03/28 07:45:52;;;;;;;8.17;3.20;;;13.70;99.90;;;;;;5008591;28;20674;-76
2021/03/28 07:48:53;;;;;;;10.13;2.87;;;14.30;99.90;;;;;;5009398;28;20319;-76
2021/03/28 07:51:54;;;;;;;9.27;3.05;;;14.60;99.90;;;;;;4994973;28;20252;-76
2021/03/28 07:54:52;;;;;;;10.35;2.97;;;16.00;99.90;;;;;;4986622;28;20264;-76
2021/03/28 07:57:51;;;;;;;7.85;2.88;;;16.70;99.90;;;;;;4970433;28;21101;-76
2021/03/28 08:00:41;;;;;;;7.70;2.80;;;16.60;99.90;;;;;;4970442;28;20202;-76
2021/03/28 08:03:34;;;;;;;9.63;2.60;;;17.20;99.90;;;;;;4985680;28;20237;-76
2021/03/28 08:06:16;;;;;;;9.43;2.95;;;17.00;99.90;;;;;;4981639;28;20225;-76
2021/03/28 08:08:57;;;;;;;9.63;2.42;;;16.20;99.90;;;;;;4986838;28;20264;-76
2021/03/28 08:11:54;;;;;;;9.32;2.60;;;14.80;99.90;;;;;;4989180;28;20292;-76
2021/03/28 08:14:59;;;;;;;5.25;2.33;;;14.30;99.90;;;;;;4989317;28;20241;-76
2021/03/28 08:17:47;;;;;;;9.27;2.55;;;15.00;99.90;;;;;;4971326;28;20296;-76
2021/03/28 08:20:34;;;;;;;9.13;2.70;;;15.50;99.90;;;;;;4980431;28;20262;-76
2021/03/28 08:23:16;;;;;;;8.50;2.70;;;16.50;99.90;;;;;;5021601;28;20235;-76
2021/03/28 08:26:09;;;;;;;8.07;2.90;;;16.80;99.90;;;;;;5049020;28;20207;-77
2021/03/28 08:28:59;;;;;;;8.32;3.08;;;16.80;99.90;;;;;;5047602;28;20367;-76
2021/03/28 08:31:36;;;;;;;8.05;2.70;;;18.20;99.90;;;;;;5033432;28;20235;-76
2021/03/28 08:34:44;;;;;;;9.25;2.70;;;16.90;99.90;;;;;;5049746;28;20640;-76
2021/03/28 08:37:41;;;;;;;9.10;2.60;;;15.60;99.90;;;;;;5051889;28;20694;-77
2021/03/28 08:40:42;;;;;;;7.68;2.65;;;16.10;99.90;;;;;;5051297;28;20294;-76
2021/03/28 08:43:44;;;;;;;8.77;3.13;;;16.10;99.90;;;;;;5050883;28;20280;-77
2021/03/28 08:46:56;;;;;;;7.53;2.70;;;15.90;99.90;;;;;;5055092;28;20226;-76
2021/03/28 08:49:30;;;;;;;7.18;2.60;;;15.80;99.90;;;;;;5030807;28;20223;-77
2021/03/28 08:52:26;;;;;;;7.60;2.80;;;15.80;99.90;;;;;;5032786;28;20284;-78
2021/03/28 08:55:04;;;;;;;10.98;2.75;;;16.70;99.90;;;;;;5042020;28;20369;-77
2021/03/28 08:57:42;;;;;;;5.07;2.47;;;16.00;99.90;;;;;;5052096;28;20249;-77
2021/03/28 09:00:23;;;;;;;5.63;2.40;;;16.50;99.90;;;;;;5032967;28;20262;-77
2021/03/28 09:03:24;;;;;;;7.63;2.55;;;16.60;99.90;;;;;;5032217;28;20606;-78
2021/03/28 09:05:56;;;;;;;5.78;2.30;;;15.60;99.90;;;;;;5031904;28;20204;-76
2021/03/28 09:08:36;;;;;;;7.97;2.38;;;15.60;99.90;;;;;;5032655;28;20260;-77
2021/03/28 09:11:43;;;;;;;6.55;2.47;;;16.70;99.90;;;;;;5032018;28;20207;-76
2021/03/28 09:14:23;;;;;;;9.48;3.90;;;17.70;99.90;;;;;;5031848;28;20204;-76
2021/03/28 09:17:01;;;;;;;6.38;2.70;;;16.10;99.90;;;;;;5030571;28;20306;-76
2021/03/28 09:20:14;;;;;;;8.82;3.17;;;14.80;99.90;;;;;;5031886;28;20703;-75
2021/03/28 09:22:52;;;;;;;13.80;6.63;;;15.30;99.90;;;;;;4996728;28;20683;-76
2021/03/28 09:25:26;;;;;;;6.63;2.57;;;14.50;99.90;;;;;;5040726;28;20260;-77
2021/03/28 09:28:01;;;;;;;18.97;10.23;;;15.10;99.90;;;;;;5040114;28;20779;-75
2021/03/28 09:30:37;;;;;;;7.80;3.00;;;16.10;99.90;;;;;;5039522;28;20278;-76
2021/03/28 09:33:32;;;;;;;13.90;6.63;;;15.80;99.90;;;;;;5036235;28;20257;-76
2021/03/28 09:36:11;;;;;;;10.60;3.87;;;15.90;99.90;;;;;;5035513;28;20235;-77
2021/03/28 09:39:25;;;;;;;5.45;1.90;;;16.80;99.90;;;;;;5044758;28;20207;-76
2021/03/28 09:42:19;;;;;;;5.60;1.70;;;18.60;99.90;;;;;;5039134;28;20231;-76
2021/03/28 09:45:30;;;;;;;5.88;2.50;;;20.10;99.90;;;;;;5031028;28;20232;-77
2021/03/28 09:48:16;;;;;;;3.72;1.40;;;20.70;99.90;;;;;;5044003;28;20223;-76
2021/03/28 09:50:54;;;;;;;6.88;2.10;;;20.40;99.90;;;;;;5044660;28;20230;-75
2021/03/28 09:53:34;;;;;;;4.20;1.98;;;19.60;99.90;;;;;;5046904;28;20204;-75
2021/03/28 09:56:45;;;;;;;6.03;1.75;;;19.90;99.90;;;;;;5046879;28;20222;-76
2021/03/28 09:59:36;;;;;;;3.85;1.50;;;19.20;99.90;;;;;;5084789;28;20194;-75
2021/03/28 10:02:25;;;;;;;6.18;2.10;;;19.50;99.90;;;;;;5072481;28;20239;-76
2021/03/28 10:05:24;;;;;;;5.97;3.45;;;19.00;99.90;;;;;;5057324;28;20230;-74
2021/03/28 10:08:07;;;;;;;7.70;3.47;;;17.20;99.90;;;;;;5071111;28;20492;-76
2021/03/28 10:11:02;;;;;;;7.20;1.90;;;15.90;99.90;;;;;;5072894;28;20245;-76
2021/03/28 10:14:13;;;;;;;4.80;1.80;;;16.10;99.90;;;;;;5070544;28;20646;-76
2021/03/28 10:16:47;;;;;;;5.35;1.80;;;16.80;99.90;;;;;;4999591;28;20714;-76
2021/03/28 10:19:25;;;;;;;7.38;2.90;;;16.60;99.90;;;;;;5001434;28;20230;-77
2021/03/28 10:22:20;;;;;;;5.97;3.03;;;17.50;99.90;;;;;;4999892;28;20284;-76
2021/03/28 10:25:28;;;;;;;7.65;2.10;;;18.00;99.90;;;;;;4987249;28;20201;-76
2021/03/28 10:28:25;;;;;;;3.83;1.60;;;17.40;99.90;;;;;;4995726;28;20301;-76
2021/03/28 10:31:05;;;;;;;5.47;1.80;;;17.70;99.90;;;;;;5003113;28;20303;-76
2021/03/28 10:33:47;;;;;;;13.85;9.10;;;17.60;99.90;;;;;;4998781;28;20233;-75
2021/03/28 10:36:31;;;;;;;8.73;2.90;;;16.30;99.90;;;;;;4997361;28;20304;-76
2021/03/28 10:39:27;;;;;;;6.60;3.50;;;17.20;99.90;;;;;;4996388;28;20281;-76
2021/03/28 10:42:18;;;;;;;5.38;2.05;;;18.50;99.90;;;;;;4996564;28;20713;-76
2021/03/28 10:45:22;;;;;;;6.18;1.70;;;19.60;99.90;;;;;;5002689;28;20210;-76
2021/03/28 10:48:31;;;;;;;5.45;1.52;;;19.70;99.90;;;;;;5052101;28;20639;-75
2021/03/28 10:51:36;;;;;;;6.90;2.90;;;16.90;99.90;;;;;;5071799;28;20229;-75
2021/03/28 10:54:49;;;;;;;4.80;1.70;;;18.20;99.90;;;;;;5067269;28;20195;-76
2021/03/28 10:58:04;;;;;;;5.47;2.88;;;17.80;99.90;;;;;;5071689;28;20191;-76
2021/03/28 11:01:08;;;;;;;7.05;1.85;;;19.10;99.90;;;;;;5068240;28;20636;-76
2021/03/28 11:04:07;;;;;;;6.85;2.40;;;18.50;99.90;;;;;;5067331;28;20241;-76
2021/03/28 11:06:44;;;;;;;7.47;4.35;;;19.70;99.90;;;;;;5070054;28;20663;-76
2021/03/28 11:09:41;;;;;;;6.85;3.65;;;20.50;99.90;;;;;;5068890;28;20254;-76
2021/03/28 11:12:43;;;;;;;7.05;2.00;;;20.90;99.90;;;;;;5068339;28;20685;-76
2021/03/28 11:15:33;;;;;;;7.32;2.15;;;19.30;99.90;;;;;;5069204;28;20257;-76
2021/03/28 11:18:36;;;;;;;4.78;1.92;;;19.40;99.90;;;;;;5071599;28;20226;-75
2021/03/28 11:21:09;;;;;;;7.45;1.98;;;20.50;99.90;;;;;;5070416;28;20240;-76
2021/03/28 11:24:15;;;;;;;7.43;1.55;;;20.40;99.90;;;;;;5069071;28;20241;-76
2021/03/28 11:27:20;;;;;;;6.38;2.88;;;20.30;99.90;;;;;;5058686;28;20206;-76
2021/03/28 11:30:07;;;;;;;5.57;1.95;;;19.50;99.90;;;;;;5071023;28;20245;-76
2021/03/28 11:33:03;;;;;;;7.30;1.80;;;19.50;99.90;;;;;;5071834;28;20226;-76
2021/03/28 11:35:35;;;;;;;6.82;2.22;;;18.60;99.90;;;;;;5071736;28;20199;-76
2021/03/28 11:38:35;;;;;;;7.38;2.13;;;20.10;99.90;;;;;;5071411;28;20566;-76
2021/03/28 11:41:40;;;;;;;5.28;2.00;;;19.70;99.90;;;;;;5070658;28;20240;-76
2021/03/28 11:44:23;;;;;;;7.88;2.90;;;19.70;99.90;;;;;;5068851;28;20201;-76
2021/03/28 11:46:57;;;;;;;7.32;3.60;;;21.30;99.90;;;;;;5070198;28;20265;-76
2021/03/28 11:49:30;;;;;;;8.95;3.53;;;21.40;99.90;;;;;;5067069;28;20291;-76
2021/03/28 11:52:15;;;;;;;14.30;11.02;;;20.40;99.90;;;;;;5070987;28;20233;-76
2021/03/28 11:54:42;;;;;;;9.80;4.10;;;19.60;99.90;;;;;;5066297;28;20261;-76
2021/03/28 11:57:28;;;;;;;8.50;3.85;;;20.40;99.90;;;;;;5071227;28;20224;-76
2021/03/28 11:59:57;;;;;;;8.65;3.60;;;21.60;99.90;;;;;;5071299;28;20195;-76
2021/03/28 12:02:27;;;;;;;6.78;2.28;;;21.10;99.90;;;;;;5071857;28;20206;-76
2021/03/28 12:05:36;;;;;;;6.07;2.10;;;21.80;99.90;;;;;;5071829;28;20190;-76
2021/03/28 12:08:11;;;;;;;4.88;1.75;;;19.90;99.90;;;;;;5068702;28;20613;-76
2021/03/28 12:10:38;;;;;;;4.50;1.67;;;20.00;99.90;;;;;;5071118;28;20662;-76
2021/03/28 12:13:28;;;;;;;6.25;1.70;;;21.00;99.90;;;;;;5070285;28;20233;-76
2021/03/28 12:16:09;;;;;;;6.47;1.83;;;19.30;99.90;;;;;;5070694;28;20199;-76
2021/03/28 12:18:57;;;;;;;6.35;1.92;;;20.10;99.90;;;;;;5074530;28;20244;-77
2021/03/28 12:21:52;;;;;;;7.90;2.17;;;18.90;99.90;;;;;;5066702;28;20203;-76
2021/03/28 12:24:26;;;;;;;6.18;2.10;;;18.60;99.90;;;;;;5063058;28;20252;-76
2021/03/28 12:26:58;;;;;;;4.85;1.90;;;18.40;99.90;;;;;;5075453;28;20708;-76
2021/03/28 12:29:44;;;;;;;6.55;2.28;;;18.00;99.90;;;;;;5075067;28;20237;-76
2021/03/28 12:32:44;;;;;;;6.00;1.65;;;19.40;99.90;;;;;;5074791;28;20202;-76
2021/03/28 12:35:16;;;;;;;5.72;2.22;;;19.60;99.90;;;;;;5059172;28;20629;-76
2021/03/28 12:37:47;;;;;;;5.57;1.40;;;20.20;99.90;;;;;;5072793;28;20219;-76
2021/03/28 12:40:34;;;;;;;5.28;1.83;;;20.00;99.90;;;;;;5076572;28;20195;-76
2021/03/28 12:43:02;;;;;;;6.10;1.95;;;19.90;99.90;;;;;;5074015;28;20233;-76
2021/03/28 12:45:33;;;;;;;6.30;1.83;;;19.50;99.90;;;;;;5077144;28;20587;-76
2021/03/28 12:48:01;;;;;;;6.97;2.22;;;19.30;99.90;;;;;;5074457;28;20250;-76
2021/03/28 12:50:33;;;;;;;6.78;1.92;;;19.00;99.90;;;;;;5071317;28;20423;-76
2021/03/28 12:53:09;;;;;;;5.22;1.90;;;19.30;99.90;;;;;;5074803;28;20658;-76
2021/03/28 12:55:42;;;;;;;4.18;1.92;;;18.70;99.90;;;;;;5073337;28;20650;-76
2021/03/28 12:58:16;;;;;;;8.13;1.88;;;19.30;99.90;;;;;;5073949;28;20278;-76
2021/03/28 13:00:53;;;;;;;7.80;1.90;;;18.90;99.90;;;;;;5074836;28;20629;-76
2021/03/28 13:03:26;;;;;;;4.93;1.98;;;19.30;99.90;;;;;;5069847;28;20194;-76
2021/03/28 13:06:18;;;;;;;4.60;1.65;;;19.50;99.90;;;;;;5074288;28;20234;-76
2021/03/28 13:08:48;;;;;;;8.38;1.88;;;19.60;99.90;;;;;;5073332;28;20265;-76
2021/03/28 13:11:16;;;;;;;6.28;1.88;;;18.90;99.90;;;;;;5062491;28;20679;-76
2021/03/28 13:13:47;;;;;;;5.45;1.70;;;19.90;99.90;;;;;;5074023;28;20235;-76
2021/03/28 13:16:27;;;;;;;5.78;1.70;;;19.60;99.90;;;;;;5074085;28;20256;-76
2021/03/28 13:18:55;;;;;;;5.25;1.67;;;19.40;99.90;;;;;;5073703;28;20318;-76
2021/03/28 13:21:25;;;;;;;7.60;2.08;;;19.70;99.90;;;;;;5072360;28;20196;-76
2021/03/28 13:24:02;;;;;;;7.78;1.50;;;19.70;99.90;;;;;;5064822;28;20246;-75
2021/03/28 13:26:31;;;;;;;8.05;1.80;;;20.00;99.90;;;;;;5073307;28;20199;-76
2021/03/28 13:29:36;;;;;;;5.60;1.60;;;20.40;99.90;;;;;;5070976;28;20350;-76
2021/03/28 13:32:05;;;;;;;6.22;1.75;;;19.80;99.90;;;;;;5070390;28;20206;-75
2021/03/28 13:34:36;;;;;;;5.72;1.80;;;19.70;99.90;;;;;;5071409;28;20203;-76
2021/03/28 13:37:14;;;;;;;5.47;1.63;;;19.10;99.90;;;;;;5071059;28;20199;-75
2021/03/28 13:39:56;;;;;;;4.43;1.25;;;18.00;99.90;;;;;;5058146;28;20195;-75
2021/03/28 13:42:28;;;;;;;6.18;1.58;;;17.60;99.90;;;;;;5067864;28;20231;-76
2021/03/28 13:45:00;;;;;;;5.65;1.80;;;18.40;99.90;;;;;;5067700;28;20263;-75
2021/03/28 13:47:46;;;;;;;5.90;1.70;;;18.70;99.90;;;;;;5060619;28;20254;-76
2021/03/28 13:50:33;;;;;;;6.50;1.73;;;18.90;99.90;;;;;;5064718;28;20581;-75
2021/03/28 13:53:04;;;;;;;5.93;1.77;;;18.70;99.90;;;;;;5069233;28;20231;-75
2021/03/28 13:55:38;;;;;;;7.00;1.88;;;18.30;99.90;;;;;;5071269;28;20246;-76
2021/03/28 13:58:12;;;;;;;6.75;1.42;;;18.40;99.90;;;;;;5069937;28;20222;-76
2021/03/28 14:00:40;;;;;;;5.65;1.40;;;18.20;99.90;;;;;;5069650;28;20196;-76
2021/03/28 14:03:18;;;;;;;4.43;1.42;;;18.70;99.90;;;;;;5069891;28;20222;-76
2021/03/28 14:05:47;;;;;;;5.40;1.50;;;18.20;99.90;;;;;;5070956;28;20672;-76
2021/03/28 14:08:19;;;;;;;6.00;1.42;;;19.10;99.90;;;;;;5069921;28;20222;-75
2021/03/28 14:11:00;;;;;;;5.95;1.70;;;19.10;99.90;;;;;;5072674;28;20223;-75
2021/03/28 14:13:31;;;;;;;6.38;1.58;;;18.20;99.90;;;;;;5073087;28;20705;-76
2021/03/28 14:16:12;;;;;;;6.18;1.60;;;18.40;99.90;;;;;;5072882;28;20209;-75
2021/03/28 14:18:41;;;;;;;4.85;1.60;;;18.50;99.90;;;;;;5072672;28;20250;-76
2021/03/28 14:21:28;;;;;;;6.53;1.70;;;18.80;99.90;;;;;;5073961;28;20650;-75
2021/03/28 14:24:00;;;;;;;4.88;1.55;;;18.70;99.90;;;;;;5070577;28;20210;-76
2021/03/28 14:26:34;;;;;;;5.30;1.40;;;18.80;99.90;;;;;;5075345;28;20214;-75
2021/03/28 14:29:00;;;;;;;7.15;1.80;;;18.70;99.90;;;;;;5081414;28;20685;-75
2021/03/28 14:31:34;;;;;;;4.60;1.48;;;18.90;99.90;;;;;;5071586;28;20720;-76